Time;durP1;ratioP1;P1;durP2;ratioP2;P2;SDS_P1;SDS_P2;PMS_P1;PMS_P2;Temp;Humidity;BMP_temperature;BMP_pressure;BME280_temperature;BME280_humidity;BME280_pressure;Samples;Min_cycle;Max_cycle;Signal;HPM_P1;HPM_P2
2023/11/21 00:00:24;;;;;;;0.90;0.60;;;;;;;6.49;100.00;95804.98;108859;1261;22522;-80
2023/11/21 00:03:16;;;;;;;2.00;1.00;;;;;;;6.43;100.00;95803.80;108813;1269;23755;-81
2023/11/21 00:05:47;;;;;;;1.30;0.90;;;;;;;6.39;100.00;95809.88;108864;1272;22533;-81
2023/11/21 00:08:19;;;;;;;2.50;1.40;;;;;;;6.36;100.00;95810.90;108909;1250;25342;-81
2023/11/21 00:10:50;;;;;;;1.30;1.20;;;;;;;6.33;100.00;95810.64;108832;1272;22530;-81
2023/11/21 00:13:24;;;;;;;2.50;1.10;;;;;;;6.30;100.00;95811.33;108857;1272;22536;-81
2023/11/21 00:15:55;;;;;;;1.30;1.00;;;;;;;6.27;100.00;95808.77;108861;1272;22546;-81
2023/11/21 00:18:28;;;;;;;2.60;1.10;;;;;;;6.25;100.00;95812.99;108829;1272;22529;-81
2023/11/21 00:20:59;;;;;;;1.90;1.20;;;;;;;6.24;100.00;95811.52;108827;1269;24338;-81
2023/11/21 00:23:32;;;;;;;1.70;1.20;;;;;;;6.26;100.00;95817.35;108895;1272;24423;-81
2023/11/21 00:26:06;;;;;;;1.40;1.10;;;;;;;6.27;100.00;95819.66;108839;1266;24093;-81
2023/11/21 00:28:37;;;;;;;2.80;1.40;;;;;;;6.28;100.00;95818.56;108878;1272;23744;-81
2023/11/21 00:31:09;;;;;;;2.70;1.30;;;;;;;6.29;100.00;95816.13;108842;1272;22537;-81
2023/11/21 00:33:40;;;;;;;4.90;1.60;;;;;;;6.30;100.00;95818.86;108850;1272;22532;-81
2023/11/21 00:36:14;;;;;;;2.00;1.80;;;;;;;6.30;100.00;95813.86;108900;1271;22637;-81
2023/11/21 00:38:45;;;;;;;3.60;2.40;;;;;;;6.31;100.00;95813.27;108841;1266;24196;-81
2023/11/21 00:41:23;;;;;;;3.60;2.60;;;;;;;6.32;100.00;95812.33;108849;1266;23881;-81
2023/11/21 00:44:00;;;;;;;2.40;1.80;;;;;;;6.32;100.00;95814.48;108837;1272;26621;-81
2023/11/21 00:46:32;;;;;;;2.60;1.90;;;;;;;6.33;100.00;95816.32;108838;1272;23073;-81
2023/11/21 00:49:04;;;;;;;4.10;2.30;;;;;;;6.36;100.00;95821.52;108853;1266;22531;-81
2023/11/21 00:51:35;;;;;;;2.10;1.40;;;;;;;6.41;100.00;95818.83;108835;1272;22563;-81
2023/11/21 00:54:09;;;;;;;3.00;2.20;;;;;;;6.45;100.00;95817.99;108864;1272;24263;-81
2023/11/21 00:56:43;;;;;;;4.60;1.70;;;;;;;6.49;100.00;95819.31;108849;1269;22525;-81
2023/11/21 00:59:21;;;;;;;2.70;1.90;;;;;;;6.51;100.00;95819.83;108801;1272;22505;-81
2023/11/21 01:01:54;;;;;;;3.40;1.80;;;;;;;6.51;100.00;95820.93;108878;1272;25546;-81
2023/11/21 01:04:28;;;;;;;5.00;2.00;;;;;;;6.50;100.00;95821.46;108833;1272;22533;-81
2023/11/21 01:07:05;;;;;;;3.40;2.00;;;;;;;6.50;100.00;95828.27;108909;1272;25310;-81
2023/11/21 01:09:38;;;;;;;2.20;1.80;;;;;;;6.51;100.00;95833.89;108872;1272;25414;-81
2023/11/21 01:12:12;;;;;;;2.30;1.70;;;;;;;6.52;100.00;95832.20;108786;1272;24435;-81
2023/11/21 01:14:46;;;;;;;3.10;1.80;;;;;;;6.53;100.00;95829.77;108839;1272;22573;-81
2023/11/21 01:17:18;;;;;;;2.50;1.30;;;;;;;6.53;100.00;95829.34;108874;1269;22514;-81
2023/11/21 01:19:51;;;;;;;3.50;1.70;;;;;;;6.55;100.00;95827.17;108837;1272;25496;-81
2023/11/21 01:22:25;;;;;;;3.20;1.50;;;;;;;6.57;100.00;95825.05;108834;1266;22524;-81
2023/11/21 01:24:57;;;;;;;1.20;0.90;;;;;;;6.60;100.00;95826.35;108838;1272;22521;-81
2023/11/21 01:27:33;;;;;;;1.70;1.40;;;;;;;6.63;100.00;95822.09;108900;1272;22513;-81
2023/11/21 01:30:10;;;;;;;2.40;1.20;;;;;;;6.64;100.00;95824.77;108844;1272;22528;-81
2023/11/21 01:32:41;;;;;;;2.20;1.40;;;;;;;6.66;100.00;95827.39;108918;1266;24333;-81
2023/11/21 01:35:13;;;;;;;1.70;1.10;;;;;;;6.68;100.00;95830.00;108861;1272;25421;-81
2023/11/21 01:37:48;;;;;;;2.70;1.50;;;;;;;6.68;100.00;95832.44;108858;1266;22545;-81
2023/11/21 01:40:19;;;;;;;2.00;1.30;;;;;;;6.66;100.00;95832.49;108833;1272;25409;-80
2023/11/21 01:42:54;;;;;;;1.10;0.60;;;;;;;6.64;100.00;95825.66;108854;1266;25317;-81
2023/11/21 01:45:26;;;;;;;1.40;1.20;;;;;;;6.64;100.00;95829.83;108852;1272;22529;-81
2023/11/21 01:47:59;;;;;;;1.60;1.30;;;;;;;6.65;100.00;95828.14;108835;1272;22521;-81
2023/11/21 01:50:34;;;;;;;1.50;1.00;;;;;;;6.63;100.00;95830.45;108864;1258;22633;-81
2023/11/21 01:53:06;;;;;;;1.70;1.20;;;;;;;6.64;100.00;95835.61;108926;1272;22803;-81
2023/11/21 01:55:41;;;;;;;1.50;0.90;;;;;;;6.63;100.00;95830.61;108845;1272;22527;-81
2023/11/21 01:58:13;;;;;;;0.70;0.70;;;;;;;6.63;100.00;95831.89;108897;1266;22591;-81
2023/11/21 02:00:50;;;;;;;2.50;1.00;;;;;;;6.63;100.00;95830.63;108827;1272;22835;-80
2023/11/21 02:03:27;;;;;;;1.90;1.50;;;;;;;6.61;100.00;95829.77;108820;1266;24120;-81
2023/11/21 02:06:03;;;;;;;1.50;1.10;;;;;;;6.59;100.00;95830.14;108874;1272;26640;-81
2023/11/21 02:08:37;;;;;;;1.60;1.20;;;;;;;6.59;100.00;95830.73;108863;1266;23833;-81
2023/11/21 02:11:12;;;;;;;1.80;1.10;;;;;;;6.60;100.00;95832.83;108858;1272;23189;-80
2023/11/21 02:13:47;;;;;;;1.20;0.80;;;;;;;6.57;100.00;95842.80;108858;1266;22563;-81
2023/11/21 02:16:18;;;;;;;3.10;1.70;;;;;;;6.53;100.00;95840.92;108836;1272;22517;-81
2023/11/21 02:18:54;;;;;;;1.70;1.20;;;;;;;6.53;100.00;95846.30;108871;1272;22546;-81
2023/11/21 02:21:28;;;;;;;1.30;1.20;;;;;;;6.51;100.00;95852.21;108824;1272;22513;-80
2023/11/21 02:24:00;;;;;;;1.70;1.30;;;;;;;6.48;100.00;95858.18;108875;1266;25576;-80
2023/11/21 02:26:41;;;;;;;3.00;1.50;;;;;;;6.48;100.00;95863.45;108880;1272;25483;-81
2023/11/21 02:29:13;;;;;;;1.60;1.10;;;;;;;6.47;100.00;95868.75;108899;1272;22538;-80
2023/11/21 02:31:47;;;;;;;2.20;1.50;;;;;;;6.46;100.00;95864.70;108858;1272;22586;-81
2023/11/21 02:34:21;;;;;;;2.20;1.30;;;;;;;6.45;100.00;95862.18;108850;1254;23109;-81
2023/11/21 02:36:53;;;;;;;2.60;1.40;;;;;;;6.44;100.00;95860.92;108813;1272;22515;-81
2023/11/21 02:39:25;;;;;;;3.50;1.40;;;;;;;6.42;100.00;95858.09;108914;1266;22636;-81
2023/11/21 02:41:58;;;;;;;4.90;2.20;;;;;;;6.39;100.00;95862.38;108885;1272;25526;-81
2023/11/21 02:44:29;;;;;;;2.70;1.40;;;;;;;6.35;100.00;95861.40;108823;1272;24208;-81
2023/11/21 02:47:01;;;;;;;3.00;1.60;;;;;;;6.33;100.00;95859.96;108884;1266;22543;-81
2023/11/21 02:49:34;;;;;;;1.40;0.60;;;;;;;6.34;100.00;95859.23;108880;1272;22522;-81
2023/11/21 02:52:06;;;;;;;4.30;1.70;;;;;;;6.33;100.00;95853.27;108810;1266;25277;-81
2023/11/21 02:54:40;;;;;;;2.80;1.70;;;;;;;6.34;100.00;95852.70;108867;1272;22524;-81
2023/11/21 02:57:14;;;;;;;4.60;1.40;;;;;;;6.30;100.00;95851.55;108880;1272;22585;-81
2023/11/21 02:59:47;;;;;;;2.50;1.10;;;;;;;6.27;100.00;95850.73;108860;1272;22514;-81
2023/11/21 03:02:23;;;;;;;2.90;1.50;;;;;;;6.28;100.00;95848.45;108850;1266;22535;-81
2023/11/21 03:04:57;;;;;;;1.40;1.10;;;;;;;6.32;100.00;95851.70;108826;1266;26338;-81
2023/11/21 03:07:28;;;;;;;2.90;1.40;;;;;;;6.32;100.00;95853.59;108840;1272;24006;-81
2023/11/21 03:09:59;;;;;;;2.90;1.10;;;;;;;6.34;100.00;95857.86;108842;1272;22534;-81
2023/11/21 03:12:31;;;;;;;2.60;1.70;;;;;;;6.37;100.00;95861.13;108829;1272;22521;-81
2023/11/21 03:15:02;;;;;;;3.70;1.00;;;;;;;6.38;100.00;95857.90;108826;1250;25246;-81
2023/11/21 03:17:34;;;;;;;3.70;1.20;;;;;;;6.41;100.00;95855.36;108842;1272;25197;-81
2023/11/21 03:20:11;;;;;;;1.90;1.40;;;;;;;6.42;100.00;95859.20;108886;1272;22532;-81
2023/11/21 03:22:42;;;;;;;4.70;1.50;;;;;;;6.42;100.00;95865.94;108876;1269;22600;-81
2023/11/21 03:25:14;;;;;;;2.40;0.90;;;;;;;6.43;100.00;95867.92;108811;1265;22495;-81
2023/11/21 03:27:50;;;;;;;2.80;1.40;;;;;;;6.42;100.00;95865.35;108881;1269;24157;-81
2023/11/21 03:30:21;;;;;;;2.10;1.50;;;;;;;6.42;100.00;95871.83;108846;1272;25471;-80
2023/11/21 03:32:53;;;;;;;2.40;1.30;;;;;;;6.42;100.00;95869.09;108862;1266;25240;-81
2023/11/21 03:35:24;;;;;;;3.70;1.30;;;;;;;6.43;100.00;95866.72;108766;1272;22533;-81
2023/11/21 03:37:57;;;;;;;1.60;1.00;;;;;;;6.42;100.00;95865.09;108800;1257;22636;-81
2023/11/21 03:40:28;;;;;;;4.00;1.60;;;;;;;6.42;100.00;95871.41;108844;1269;22519;-80
2023/11/21 03:42:59;;;;;;;3.80;1.40;;;;;;;6.41;100.00;95873.99;108830;1269;22566;-80
2023/11/21 03:45:30;;;;;;;4.70;1.50;;;;;;;6.40;100.00;95877.80;108850;1272;24241;-81
2023/11/21 03:48:02;;;;;;;2.30;1.40;;;;;;;6.39;100.00;95881.59;108822;1272;22527;-81
2023/11/21 03:50:33;;;;;;;3.30;1.60;;;;;;;6.39;100.00;95875.64;108757;1272;22526;-80
2023/11/21 03:53:05;;;;;;;1.60;1.50;;;;;;;6.38;100.00;95880.86;108818;1272;22528;-81
2023/11/21 03:55:41;;;;;;;3.10;1.30;;;;;;;6.37;100.00;95873.49;108840;1272;22930;-81
2023/11/21 03:58:12;;;;;;;2.50;1.70;;;;;;;6.40;100.00;95876.00;108811;1266;22560;-81
2023/11/21 04:00:48;;;;;;;1.90;1.30;;;;;;;6.41;100.00;95874.95;108828;1272;32123;-80
2023/11/21 04:03:27;;;;;;;2.40;1.20;;;;;;;6.43;100.00;95876.52;108857;1266;22609;-80
2023/11/21 04:06:02;;;;;;;1.50;0.80;;;;;;;6.44;100.00;95878.56;108858;1272;25532;-81
2023/11/21 04:08:38;;;;;;;2.70;1.70;;;;;;;6.44;100.00;95878.70;108827;1272;22969;-81
2023/11/21 04:11:13;;;;;;;2.50;1.20;;;;;;;6.44;100.00;95876.61;108809;1269;23979;-81
2023/11/21 04:13:47;;;;;;;3.80;1.50;;;;;;;6.45;100.00;95879.02;108823;1272;24074;-81
2023/11/21 04:16:18;;;;;;;2.70;1.40;;;;;;;6.45;100.00;95881.92;108835;1269;23721;-81
2023/11/21 04:18:54;;;;;;;5.50;1.70;;;;;;;6.46;100.00;95880.55;108825;1272;25275;-80
2023/11/21 04:21:31;;;;;;;4.50;1.60;;;;;;;6.46;100.00;95881.23;108812;1266;22536;-80
2023/11/21 04:24:04;;;;;;;3.20;1.90;;;;;;;6.45;100.00;95880.66;108862;1269;22508;-81
2023/11/21 04:26:38;;;;;;;1.30;1.20;;;;;;;6.46;100.00;95878.70;108839;1266;22534;-81
2023/11/21 04:29:12;;;;;;;5.10;2.30;;;;;;;6.47;100.00;95879.98;108818;1266;22529;-81
2023/11/21 04:31:43;;;;;;;3.90;2.20;;;;;;;6.46;100.00;95879.23;108832;1270;23565;-81
2023/11/21 04:34:17;;;;;;;3.90;1.90;;;;;;;6.47;100.00;95879.49;108885;1266;25034;-81
2023/11/21 04:36:50;;;;;;;4.10;2.00;;;;;;;6.47;100.00;95881.65;108839;1272;25284;-80
2023/11/21 04:39:22;;;;;;;2.80;1.80;;;;;;;6.46;100.00;95881.02;108856;1272;22518;-81
2023/11/21 04:41:55;;;;;;;2.30;1.40;;;;;;;6.44;100.00;95882.14;108815;1266;24540;-81
2023/11/21 04:44:26;;;;;;;4.10;1.50;;;;;;;6.44;100.00;95879.66;108801;1272;22820;-80
2023/11/21 04:46:57;;;;;;;5.60;1.70;;;;;;;6.45;100.00;95882.66;108873;1272;22521;-81
2023/11/21 04:49:28;;;;;;;2.60;1.80;;;;;;;6.46;100.00;95885.02;108819;1272;22560;-81
2023/11/21 04:51:59;;;;;;;4.70;1.70;;;;;;;6.48;100.00;95887.23;108838;1272;22515;-81
2023/11/21 04:54:33;;;;;;;5.70;2.30;;;;;;;6.47;100.00;95883.65;108841;1272;22662;-80
2023/11/21 04:57:07;;;;;;;5.30;1.80;;;;;;;6.46;100.00;95887.92;108856;1266;22529;-81
2023/11/21 04:59:38;;;;;;;4.20;1.80;;;;;;;6.44;100.00;95886.94;108849;1272;22528;-81
2023/11/21 05:02:09;;;;;;;5.00;2.10;;;;;;;6.41;100.00;95888.21;108825;1272;22510;-81
2023/11/21 05:04:43;;;;;;;3.60;2.00;;;;;;;6.40;100.00;95883.90;108854;1272;24219;-81
2023/11/21 05:07:16;;;;;;;3.20;2.20;;;;;;;6.39;100.00;95886.33;108802;1265;22527;-81
2023/11/21 05:09:50;;;;;;;4.70;2.10;;;;;;;6.38;100.00;95885.02;108817;1272;22517;-81
2023/11/21 05:12:27;;;;;;;2.20;1.70;;;;;;;6.37;100.00;95884.45;108806;1266;22548;-81
2023/11/21 05:15:00;;;;;;;2.10;1.60;;;;;;;6.37;100.00;95888.77;108790;1272;25424;-81
2023/11/21 05:17:36;;;;;;;3.60;2.40;;;;;;;6.39;100.00;95894.23;108829;1266;25940;-80
2023/11/21 05:20:12;;;;;;;3.50;2.20;;;;;;;6.41;100.00;95897.00;108860;1269;25857;-81
2023/11/21 05:22:43;;;;;;;7.40;3.00;;;;;;;6.41;100.00;95897.90;108881;1272;22633;-81
2023/11/21 05:25:20;;;;;;;2.90;2.20;;;;;;;6.41;100.00;95896.01;108812;1269;25407;-81
2023/11/21 05:27:53;;;;;;;4.40;2.50;;;;;;;6.40;100.00;95899.55;108824;1272;22722;-80
2023/11/21 05:30:26;;;;;;;4.30;2.30;;;;;;;6.37;100.00;95900.25;108830;1272;22618;-80
2023/11/21 05:33:00;;;;;;;5.80;2.70;;;;;;;6.34;100.00;95900.79;108859;1272;22526;-80
2023/11/21 05:35:33;;;;;;;5.50;2.50;;;;;;;6.32;100.00;95902.61;108818;1267;23513;-81
2023/11/21 05:38:08;;;;;;;3.70;2.00;;;;;;;6.31;100.00;95906.55;108822;1266;22525;-81
2023/11/21 05:40:44;;;;;;;3.60;2.30;;;;;;;6.29;100.00;95910.31;108824;1272;22585;-80
2023/11/21 05:43:16;;;;;;;5.30;2.10;;;;;;;6.26;100.00;95910.95;108836;1272;25527;-81
2023/11/21 05:45:47;;;;;;;3.50;2.10;;;;;;;6.24;100.00;95911.80;108840;1272;23459;-81
2023/11/21 05:48:22;;;;;;;3.10;2.00;;;;;;;6.24;100.00;95914.33;108857;1272;22547;-81
2023/11/21 05:50:55;;;;;;;3.90;2.20;;;;;;;6.25;100.00;95914.11;108806;1272;25301;-80
2023/11/21 05:53:31;;;;;;;7.10;2.70;;;;;;;6.23;100.00;95914.65;108843;1272;23346;-80
2023/11/21 05:56:03;;;;;;;4.60;2.80;;;;;;;6.22;100.00;95920.23;108840;1267;22928;-81
2023/11/21 05:58:34;;;;;;;6.10;2.80;;;;;;;6.22;100.00;95920.39;108843;1272;22521;-81
2023/11/21 06:01:09;;;;;;;5.80;3.00;;;;;;;6.20;100.00;95926.23;108822;1272;23797;-80
2023/11/21 06:03:43;;;;;;;3.90;2.50;;;;;;;6.16;100.00;95922.55;108823;1272;22518;-80
2023/11/21 06:06:14;;;;;;;2.90;2.20;;;;;;;6.14;100.00;95924.35;108851;1272;25373;-80
2023/11/21 06:08:48;;;;;;;3.50;2.40;;;;;;;6.14;100.00;95924.45;108839;1256;22536;-81
2023/11/21 06:11:20;;;;;;;5.20;2.60;;;;;;;6.13;100.00;95926.30;108786;1267;22500;-80
2023/11/21 06:13:53;;;;;;;4.70;2.30;;;;;;;6.12;100.00;95923.77;108784;1272;22582;-80
2023/11/21 06:16:24;;;;;;;4.70;2.30;;;;;;;6.09;100.00;95928.05;108820;1272;22513;-80
2023/11/21 06:18:55;;;;;;;3.70;2.30;;;;;;;6.08;100.00;95924.70;108824;1269;22528;-80
2023/11/21 06:21:28;;;;;;;5.00;2.80;;;;;;;6.07;100.00;95931.20;108800;1266;25428;-81
2023/11/21 06:24:00;;;;;;;5.50;2.80;;;;;;;6.07;100.00;95934.95;108827;1267;22518;-80
2023/11/21 06:26:34;;;;;;;6.40;3.60;;;;;;;6.07;100.00;95933.80;108768;1272;22516;-80
2023/11/21 06:29:08;;;;;;;4.30;3.40;;;;;;;6.06;100.00;95935.37;108809;1272;22609;-80
2023/11/21 06:31:40;;;;;;;5.30;3.10;;;;;;;6.06;100.00;95936.63;108789;1272;26638;-80
2023/11/21 06:34:12;;;;;;;4.70;3.10;;;;;;;6.06;100.00;95940.27;108788;1272;22526;-81
2023/11/21 06:36:45;;;;;;;5.80;3.20;;;;;;;6.07;100.00;95939.36;108815;1272;22553;-81
2023/11/21 06:39:22;;;;;;;5.00;3.30;;;;;;;6.07;100.00;95937.58;108827;1272;22553;-81
2023/11/21 06:41:56;;;;;;;5.00;2.50;;;;;;;6.08;100.00;95944.48;108824;1272;22611;-81
2023/11/21 06:44:29;;;;;;;6.50;2.40;;;;;;;6.11;100.00;95947.20;108811;1272;22514;-81
2023/11/21 06:47:00;;;;;;;4.50;2.70;;;;;;;6.14;100.00;95941.51;108772;1266;22541;-82
2023/11/21 06:49:34;;;;;;;3.50;2.40;;;;;;;6.16;100.00;95946.55;108787;1272;25320;-81
2023/11/21 06:52:10;;;;;;;5.10;2.60;;;;;;;6.19;100.00;95948.86;108827;1266;22742;-81
2023/11/21 06:54:44;;;;;;;3.60;2.20;;;;;;;6.22;100.00;95951.40;108873;1272;22534;-81
2023/11/21 06:57:18;;;;;;;4.00;2.10;;;;;;;6.25;100.00;95953.13;108826;1272;22588;-81
2023/11/21 06:59:50;;;;;;;4.00;2.30;;;;;;;6.28;100.00;95956.11;108796;1272;22559;-82
2023/11/21 07:02:21;;;;;;;3.80;2.20;;;;;;;6.28;100.00;95954.90;108794;1272;23989;-81
2023/11/21 07:04:52;;;;;;;4.80;2.20;;;;;;;6.27;100.00;95961.70;108839;1272;23823;-82
2023/11/21 07:07:28;;;;;;;4.00;2.60;;;;;;;6.28;100.00;95963.23;108815;1272;24257;-81
2023/11/21 07:10:04;;;;;;;6.20;2.70;;;;;;;6.32;100.00;95960.41;108811;1272;22582;-82
2023/11/21 07:12:35;;;;;;;5.40;2.70;;;;;;;6.33;100.00;95966.30;108853;1269;22524;-81
2023/11/21 07:15:10;;;;;;;4.20;3.10;;;;;;;6.32;100.00;95967.36;108800;1272;24417;-81
2023/11/21 07:17:44;;;;;;;5.20;2.50;;;;;;;6.34;100.00;95973.64;108815;1269;22533;-81
2023/11/21 07:20:21;;;;;;;4.90;2.30;;;;;;;6.34;100.00;95977.39;108775;1272;25056;-78
2023/11/21 07:22:52;;;;;;;2.60;2.00;;;;;;;6.35;100.00;95979.59;108809;1266;25443;-81
2023/11/21 07:25:26;;;;;;;4.70;2.90;;;;;;;6.34;100.00;95980.76;108815;1272;23785;-81
2023/11/21 07:27:59;;;;;;;4.70;2.60;;;;;;;6.34;100.00;95989.17;108827;1272;23794;-81
2023/11/21 07:30:30;;;;;;;3.90;2.70;;;;;;;6.35;100.00;95993.91;108849;1272;24933;-81
2023/11/21 07:33:07;;;;;;;2.70;2.00;;;;;;;6.37;100.00;95990.80;108817;1269;24200;-81
2023/11/21 07:35:38;;;;;;;4.20;2.20;;;;;;;6.36;100.00;95991.06;108940;1272;23089;-81
2023/11/21 07:38:10;;;;;;;4.40;2.30;;;;;;;6.37;100.00;95992.11;108815;1267;22557;-81
2023/11/21 07:40:46;;;;;;;4.20;2.20;;;;;;;6.42;100.00;95992.63;108797;1272;22517;-81
2023/11/21 07:43:19;;;;;;;2.80;1.80;;;;;;;6.50;100.00;95991.20;108834;1272;26715;-81
2023/11/21 07:45:52;;;;;;;2.10;1.50;;;;;;;6.57;100.00;95995.17;108814;1272;25223;-81
2023/11/21 07:48:26;;;;;;;2.30;1.80;;;;;;;6.63;100.00;95991.91;108789;1269;22526;-81
2023/11/21 07:50:59;;;;;;;4.30;2.30;;;;;;;6.66;100.00;95993.52;108778;1272;22525;-80
2023/11/21 07:53:30;;;;;;;3.30;2.00;;;;;;;6.71;100.00;95997.08;108804;1267;22592;-81
2023/11/21 07:56:09;;;;;;;3.80;1.60;;;;;;;6.73;100.00;95997.49;108810;1272;22522;-81
2023/11/21 07:58:40;;;;;;;2.80;2.50;;;;;;;6.72;100.00;95997.40;108853;1269;22526;-81
2023/11/21 08:01:13;;;;;;;2.40;1.80;;;;;;;6.70;100.00;96002.04;108796;1272;25474;-81
2023/11/21 08:03:45;;;;;;;3.00;2.10;;;;;;;6.70;100.00;96005.63;108738;1272;22540;-81
2023/11/21 08:06:25;;;;;;;3.20;2.20;;;;;;;6.71;100.00;96001.55;108828;1272;22518;-81
2023/11/21 08:08:58;;;;;;;4.30;2.10;;;;;;;6.71;100.00;96001.50;108802;1272;22536;-81
2023/11/21 08:11:33;;;;;;;3.70;2.60;;;;;;;6.70;100.00;96000.09;108789;1269;24242;-81
2023/11/21 08:14:06;;;;;;;4.70;2.20;;;;;;;6.67;100.00;95998.20;108772;1266;26012;-81
2023/11/21 08:16:42;;;;;;;5.00;2.40;;;;;;;6.64;100.00;96000.23;108831;1272;22518;-81
2023/11/21 08:19:16;;;;;;;4.00;2.50;;;;;;;6.62;100.00;95998.70;108801;1272;22596;-81
2023/11/21 08:21:59;;;;;;;7.30;2.70;;;;;;;6.62;100.00;96000.34;108799;1272;22518;-81
2023/11/21 08:24:32;;;;;;;2.80;2.50;;;;;;;6.63;100.00;95996.91;108796;1266;22517;-81
2023/11/21 08:27:04;;;;;;;5.80;3.20;;;;;;;6.67;100.00;95999.16;108810;1269;22518;-81
2023/11/21 08:29:36;;;;;;;4.10;2.50;;;;;;;6.69;100.00;96002.20;108861;1269;24186;-81
2023/11/21 08:32:08;;;;;;;4.50;2.90;;;;;;;6.70;100.00;96002.52;108853;1272;22539;-81
2023/11/21 08:34:45;;;;;;;5.80;2.80;;;;;;;6.73;100.00;96012.40;108795;1272;22974;-81
2023/11/21 08:37:21;;;;;;;2.70;2.00;;;;;;;6.73;100.00;96014.71;108841;1269;23276;-81
2023/11/21 08:39:55;;;;;;;5.10;2.20;;;;;;;6.72;100.00;96020.47;108782;1272;22776;-81
2023/11/21 08:42:29;;;;;;;4.30;2.30;;;;;;;6.72;100.00;96022.10;108830;1270;24212;-81
2023/11/21 08:45:03;;;;;;;3.80;2.30;;;;;;;6.74;100.00;96018.88;108819;1269;25409;-81
2023/11/21 08:47:34;;;;;;;4.20;2.40;;;;;;;6.74;100.00;96024.35;108828;1272;22622;-81
2023/11/21 08:50:14;;;;;;;4.10;3.00;;;;;;;6.74;100.00;96020.88;108799;1272;22518;-81
2023/11/21 08:52:52;;;;;;;4.20;2.10;;;;;;;6.76;100.00;96026.84;108818;1272;25248;-81
2023/11/21 08:55:24;;;;;;;2.80;1.90;;;;;;;6.75;100.00;96035.00;108808;1266;24207;-81
2023/11/21 08:57:58;;;;;;;4.30;2.40;;;;;;;6.75;100.00;96036.64;108845;1272;22520;-81
2023/11/21 09:00:33;;;;;;;5.10;2.20;;;;;;;6.76;100.00;96038.91;108794;1270;22511;-81
2023/11/21 09:03:08;;;;;;;3.60;2.60;;;;;;;6.75;100.00;96033.31;108821;1272;22537;-81
2023/11/21 09:05:42;;;;;;;3.90;2.70;;;;;;;6.72;100.00;96033.73;108891;1272;22780;-81
2023/11/21 09:08:13;;;;;;;3.30;2.20;;;;;;;6.69;100.00;96029.60;108811;1272;22519;-81
2023/11/21 09:10:47;;;;;;;3.60;3.00;;;;;;;6.66;100.00;96028.14;108781;1269;22626;-81
2023/11/21 09:13:21;;;;;;;5.60;2.80;;;;;;;6.64;100.00;96029.03;108843;1272;22521;-81
2023/11/21 09:15:52;;;;;;;6.00;3.20;;;;;;;6.63;100.00;96032.52;108793;1269;26986;-81
2023/11/21 09:18:25;;;;;;;5.00;2.90;;;;;;;6.61;100.00;96031.08;108824;1272;25424;-82
2023/11/21 09:20:57;;;;;;;6.10;3.20;;;;;;;6.61;100.00;96030.77;108747;1267;25440;-81
2023/11/21 09:23:32;;;;;;;7.10;4.20;;;;;;;6.59;100.00;96029.50;108698;1272;159911;-81
2023/11/21 09:26:05;;;;;;;5.40;3.10;;;;;;;6.58;100.00;96024.29;108769;1262;26125;-81
2023/11/21 09:28:37;;;;;;;7.30;4.30;;;;;;;6.56;100.00;96024.20;108772;1272;22587;-81
2023/11/21 09:31:09;;;;;;;5.30;3.10;;;;;;;6.51;100.00;96030.59;108813;1267;22524;-81
2023/11/21 09:33:41;;;;;;;4.10;3.30;;;;;;;6.51;100.00;96031.33;108811;1272;25285;-81
2023/11/21 09:36:22;;;;;;;3.20;2.10;;;;;;;6.52;100.00;96031.48;108838;1269;24231;-81
2023/11/21 09:39:02;;;;;;;5.50;2.90;;;;;;;6.57;100.00;96035.62;108897;1272;24231;-81
2023/11/21 09:41:45;;;;;;;4.40;3.20;;;;;;;6.57;100.00;96034.14;108783;1272;22521;-81
2023/11/21 09:44:24;;;;;;;4.00;2.80;;;;;;;6.61;100.00;96030.55;108755;1269;22536;-81
2023/11/21 09:47:08;;;;;;;9.10;6.40;;;;;;;6.66;100.00;96034.93;108821;1266;22507;-81
2023/11/21 09:49:41;;;;;;;7.90;3.30;;;;;;;6.70;100.00;96032.75;108823;1272;25262;-81
2023/11/21 09:52:25;;;;;;;7.30;3.30;;;;;;;6.70;100.00;96035.02;108780;1272;23425;-81
2023/11/21 09:55:01;;;;;;;5.20;3.20;;;;;;;6.75;100.00;96037.38;108804;1267;25429;-81
2023/11/21 09:57:33;;;;;;;5.40;2.90;;;;;;;6.82;100.00;96034.04;108815;1272;22513;-81
2023/11/21 10:00:11;;;;;;;4.60;2.70;;;;;;;6.86;100.00;96037.40;108847;1266;22511;-82
2023/11/21 10:02:49;;;;;;;5.20;3.40;;;;;;;6.85;100.00;96034.02;108787;1272;26430;-81
2023/11/21 10:05:26;;;;;;;4.50;3.50;;;;;;;6.86;100.00;96038.08;108749;1266;23873;-81
2023/11/21 10:08:01;;;;;;;5.10;3.50;;;;;;;6.88;100.00;96039.65;108857;1272;22530;-81
2023/11/21 10:10:38;;;;;;;3.00;1.90;;;;;;;6.84;100.00;96033.40;108812;1264;22641;-80
2023/11/21 10:13:12;;;;;;;3.10;2.10;;;;;;;6.78;100.00;96035.69;108810;1272;25512;-80
2023/11/21 10:15:48;;;;;;;2.90;1.90;;;;;;;6.74;100.00;96034.11;108883;1267;22514;-81
2023/11/21 10:18:25;;;;;;;6.20;2.30;;;;;;;6.73;100.00;96036.80;108870;1270;25410;-81
2023/11/21 10:20:59;;;;;;;3.90;1.80;;;;;;;6.73;100.00;96042.38;108786;1272;23861;-81
2023/11/21 10:23:33;;;;;;;3.50;1.90;;;;;;;6.75;100.00;96041.90;108820;1272;24241;-81
2023/11/21 10:26:06;;;;;;;4.20;2.20;;;;;;;6.76;100.00;96048.29;108778;1271;22508;-81
2023/11/21 10:28:40;;;;;;;6.60;2.50;;;;;;;6.73;100.00;96036.38;108865;1272;22636;-81
2023/11/21 10:31:13;;;;;;;4.70;2.20;;;;;;;6.73;100.00;96040.23;108878;1269;22518;-80
2023/11/21 10:33:50;;;;;;;6.70;3.00;;;;;;;6.73;100.00;96037.68;108797;1269;22696;-81
2023/11/21 10:36:30;;;;;;;11.00;5.70;;;;;;;6.76;100.00;96039.48;108795;1272;26605;-81
2023/11/21 10:39:03;;;;;;;6.70;3.20;;;;;;;6.79;100.00;96033.37;108852;1272;22547;-81
2023/11/21 10:41:35;;;;;;;8.70;5.00;;;;;;;6.79;100.00;96037.64;108795;1272;26960;-81
2023/11/21 10:44:11;;;;;;;11.00;5.50;;;;;;;6.81;100.00;96041.42;108789;1272;25409;-81
2023/11/21 10:46:43;;;;;;;7.70;4.70;;;;;;;6.84;100.00;96043.88;108781;1263;22557;-81
2023/11/21 10:49:15;;;;;;;9.10;4.20;;;;;;;6.89;100.00;96043.71;108763;1272;22536;-81
2023/11/21 10:51:48;;;;;;;7.80;4.10;;;;;;;6.93;100.00;96042.23;108781;1272;22529;-81
2023/11/21 10:54:29;;;;;;;9.10;5.90;;;;;;;6.98;100.00;96041.05;108855;1272;23848;-80
2023/11/21 10:57:03;;;;;;;7.00;4.30;;;;;;;7.10;100.00;96039.69;108803;1272;22986;-81
2023/11/21 10:59:38;;;;;;;7.70;4.50;;;;;;;7.19;100.00;96039.29;108847;1272;22561;-81
2023/11/21 11:02:24;;;;;;;8.40;4.70;;;;;;;7.23;100.00;96039.75;108767;1269;23975;-81
2023/11/21 11:05:02;;;;;;;6.40;3.50;;;;;;;7.22;100.00;96038.75;108808;1272;22627;-81
2023/11/21 11:07:35;;;;;;;;;;;;;;;7.21;100.00;96040.34;108828;1272;23739;-81
2023/11/21 11:10:14;;;;;;;4.70;2.90;;;;;;;7.28;100.00;96036.88;108831;1272;25239;-81
2023/11/21 11:12:48;;;;;;;7.60;2.70;;;;;;;7.25;100.00;96037.42;108792;1270;22520;-81
2023/11/21 11:15:20;;;;;;;5.60;3.40;;;;;;;7.19;100.00;96036.61;108834;1272;24219;-81
2023/11/21 11:17:57;;;;;;;4.10;2.90;;;;;;;7.17;100.00;96034.38;108825;1270;22532;-81
2023/11/21 11:20:37;;;;;;;6.30;3.20;;;;;;;7.17;100.00;96036.33;108758;1272;22832;-81
2023/11/21 11:23:16;;;;;;;;;;;;;;;7.17;100.00;96038.91;108832;1272;22607;-81
2023/11/21 11:26:02;;;;;;;6.40;3.20;;;;;;;7.17;100.00;96036.34;108804;1267;21703;-81
2023/11/21 11:28:45;;;;;;;22.20;14.60;;;;;;;7.19;100.00;96035.13;108798;1272;22540;-81
2023/11/21 11:31:38;;;;;;;5.60;3.60;;;;;;;7.24;100.00;96033.63;108799;1272;25507;-81
2023/11/21 11:34:26;;;;;;;3.90;2.70;;;;;;;7.31;100.00;96036.12;108827;1272;22529;-81
2023/11/21 11:37:03;;;;;;;5.80;3.10;;;;;;;7.39;100.00;96035.61;108813;1272;22532;-81
2023/11/21 11:39:41;;;;;;;5.20;3.60;;;;;;;7.45;100.00;96040.74;108823;1272;23159;-80
2023/11/21 11:42:17;;;;;;;4.20;2.70;;;;;;;7.48;100.00;96042.85;108804;1272;22523;-80
2023/11/21 11:44:57;;;;;;;8.60;4.10;;;;;;;7.51;100.00;96042.58;108761;1272;22688;-81
2023/11/21 11:47:33;;;;;;;5.10;3.30;;;;;;;7.54;100.00;96044.60;108799;1250;22982;-81
2023/11/21 11:50:13;;;;;;;5.20;3.10;;;;;;;7.51;100.00;96045.05;108762;1270;22727;-81
2023/11/21 11:52:47;;;;;;;5.20;3.10;;;;;;;7.46;100.00;96042.11;108867;1256;23992;-81
2023/11/21 11:55:24;;;;;;;3.90;2.20;;;;;;;7.42;100.00;96041.97;108785;1272;22516;-81
2023/11/21 11:57:56;;;;;;;4.40;2.30;;;;;;;7.43;100.00;96042.91;108766;1272;22521;-81